Time;durP1;ratioP1;P1;durP2;ratioP2;P2;SDS_P1;SDS_P2;PMS_P1;PMS_P2;Temp;Humidity;BMP_temperature;BMP_pressure;BME280_temperature;BME280_humidity;BME280_pressure;Samples;Min_cycle;Max_cycle;Signal;HPM_P1;HPM_P2
2023/04/23 00:00:15;;;;;;;11.98;7.20;;;;;;;;;;4953834;28;20049;-54
2023/04/23 00:02:45;;;;;;;8.32;5.57;;;;;;;;;;4939459;28;20067;-53
2023/04/23 00:05:11;;;;;;;6.40;4.57;;;;;;;;;;4955241;28;20039;-54
2023/04/23 00:07:37;;;;;;;8.73;5.50;;;;;;;;;;4941960;29;20041;-54
2023/04/23 00:10:04;;;;;;;9.02;4.68;;;;;;;;;;4937160;29;20032;-53
2023/04/23 00:12:29;;;;;;;;;;;;;;;;;;4953366;28;20474;-53
2023/04/23 00:14:55;;;;;;;6.80;4.23;;;;;;;;;;4941340;29;19911;-55
2023/04/23 00:17:20;;;;;;;14.90;4.35;;;;;;;;;;4941111;29;20035;-57
2023/04/23 00:19:46;;;;;;;7.18;4.07;;;;;;;;;;4938107;28;20039;-57
2023/04/23 00:22:12;;;;;;;6.82;3.70;;;;;;;;;;4938202;29;20043;-59
2023/04/23 00:24:38;;;;;;;5.53;3.72;;;;;;;;;;4938387;29;20035;-57
2023/04/23 00:27:03;;;;;;;8.20;3.85;;;;;;;;;;4939146;29;20516;-57
2023/04/23 00:29:28;;;;;;;7.82;3.65;;;;;;;;;;4939296;29;20217;-53
2023/04/23 00:31:54;;;;;;;4.78;3.60;;;;;;;;;;4941952;28;20115;-51
2023/04/23 00:34:19;;;;;;;7.90;3.83;;;;;;;;;;4939684;29;20028;-54
2023/04/23 00:36:45;;;;;;;6.10;3.97;;;;;;;;;;4938195;29;20086;-54
2023/04/23 00:39:10;;;;;;;9.20;4.20;;;;;;;;;;4953546;28;20038;-53
2023/04/23 00:41:35;;;;;;;6.70;4.28;;;;;;;;;;4940312;28;20073;-57
2023/04/23 00:44:02;;;;;;;8.13;4.20;;;;;;;;;;4944131;29;20758;-52
2023/04/23 00:46:27;;;;;;;9.55;4.63;;;;;;;;;;4953394;28;20040;-53
2023/04/23 00:48:53;;;;;;;5.65;3.65;;;;;;;;;;4943788;28;20035;-51
2023/04/23 00:51:20;;;;;;;6.15;3.72;;;;;;;;;;4940291;28;20150;-53
2023/04/23 00:53:46;;;;;;;5.20;3.67;;;;;;;;;;4946252;29;20038;-52
2023/04/23 00:56:11;;;;;;;7.00;3.90;;;;;;;;;;4941899;28;20031;-57
2023/04/23 00:58:37;;;;;;;5.72;3.35;;;;;;;;;;4940960;29;20070;-54
2023/04/23 01:01:03;;;;;;;6.00;3.17;;;;;;;;;;4945172;28;20039;-53
2023/04/23 01:03:30;;;;;;;6.15;3.55;;;;;;;;;;4940931;28;20078;-55
2023/04/23 01:05:55;;;;;;;5.60;3.33;;;;;;;;;;4956654;28;20032;-56
2023/04/23 01:08:22;;;;;;;4.43;3.08;;;;;;;;;;4946523;29;20583;-56
2023/04/23 01:10:48;;;;;;;9.70;3.45;;;;;;;;;;4942793;29;20436;-52
2023/04/23 01:13:13;;;;;;;6.80;3.15;;;;;;;;;;4944275;28;20035;-49
2023/04/23 01:15:39;;;;;;;8.57;3.47;;;;;;;;;;4943169;28;20089;-51
2023/04/23 01:18:06;;;;;;;8.43;3.00;;;;;;;;;;4946745;29;20039;-59
2023/04/23 01:20:32;;;;;;;9.15;3.58;;;;;;;;;;4943750;28;20063;-57
2023/04/23 01:22:59;;;;;;;6.78;3.17;;;;;;;;;;4941980;28;20023;-57
2023/04/23 01:25:25;;;;;;;5.68;3.47;;;;;;;;;;4945972;29;20054;-55
2023/04/23 01:27:50;;;;;;;5.55;3.35;;;;;;;;;;4956553;28;20032;-54
2023/04/23 01:30:16;;;;;;;7.40;3.07;;;;;;;;;;4957184;28;20039;-55
2023/04/23 01:32:42;;;;;;;9.48;3.50;;;;;;;;;;4958570;28;20031;-57
2023/04/23 01:35:08;;;;;;;7.78;3.25;;;;;;;;;;4943819;29;20027;-54
2023/04/23 01:37:34;;;;;;;6.38;3.55;;;;;;;;;;4941414;29;20046;-57
2023/04/23 01:39:59;;;;;;;5.35;3.17;;;;;;;;;;4954223;28;20030;-55
2023/04/23 01:42:25;;;;;;;6.00;3.50;;;;;;;;;;4940720;28;20039;-54
2023/04/23 01:44:52;;;;;;;9.65;3.75;;;;;;;;;;4943573;29;20024;-53
2023/04/23 01:47:19;;;;;;;5.97;3.25;;;;;;;;;;4940487;29;20440;-56
2023/04/23 01:49:44;;;;;;;6.45;3.13;;;;;;;;;;4944228;28;20038;-56
2023/04/23 01:52:10;;;;;;;5.60;3.50;;;;;;;;;;4955680;28;20252;-53
2023/04/23 01:54:35;;;;;;;6.55;3.38;;;;;;;;;;4925442;29;20424;-57
2023/04/23 01:57:01;;;;;;;7.50;3.55;;;;;;;;;;4940701;28;20035;-57
2023/04/23 01:59:27;;;;;;;7.32;3.90;;;;;;;;;;4942071;28;20090;-55
2023/04/23 02:01:52;;;;;;;6.32;4.07;;;;;;;;;;4957265;28;20026;-56
2023/04/23 02:04:18;;;;;;;6.78;4.00;;;;;;;;;;4947852;28;20026;-55
2023/04/23 02:06:45;;;;;;;11.10;4.65;;;;;;;;;;4925562;29;20023;-57
2023/04/23 02:09:11;;;;;;;15.00;5.07;;;;;;;;;;4945427;28;20031;-49
2023/04/23 02:11:37;;;;;;;7.93;4.90;;;;;;;;;;4941649;28;20042;-58
2023/04/23 02:14:02;;;;;;;8.07;5.30;;;;;;;;;;4955757;28;20034;-56
2023/04/23 02:16:28;;;;;;;8.50;5.55;;;;;;;;;;4941564;29;20603;-55
2023/04/23 02:18:54;;;;;;;8.25;5.30;;;;;;;;;;4938614;29;20126;-56
2023/04/23 02:21:20;;;;;;;10.57;5.30;;;;;;;;;;4941082;28;20154;-57
2023/04/23 02:23:45;;;;;;;9.50;5.25;;;;;;;;;;4939667;29;20570;-54
2023/04/23 02:26:11;;;;;;;8.05;5.22;;;;;;;;;;4941923;28;20027;-55
2023/04/23 02:28:36;;;;;;;9.02;5.53;;;;;;;;;;4941119;29;20023;-57
2023/04/23 02:31:01;;;;;;;9.50;5.65;;;;;;;;;;4955639;28;20036;-56
2023/04/23 02:33:26;;;;;;;7.93;5.07;;;;;;;;;;4943186;28;20035;-54
2023/04/23 02:35:55;;;;;;;11.77;5.82;;;;;;;;;;4941891;29;20107;-56
2023/04/23 02:38:20;;;;;;;9.82;5.97;;;;;;;;;;4942408;29;20161;-56
2023/04/23 02:40:45;;;;;;;8.02;5.93;;;;;;;;;;4941562;28;20354;-52
2023/04/23 02:43:11;;;;;;;9.93;5.82;;;;;;;;;;4942173;29;20808;-53
2023/04/23 02:45:36;;;;;;;6.80;5.72;;;;;;;;;;4940957;28;20019;-54
2023/04/23 02:48:01;;;;;;;8.40;5.68;;;;;;;;;;4939378;29;20364;-52
2023/04/23 02:50:27;;;;;;;10.23;6.15;;;;;;;;;;4944933;28;20097;-53
2023/04/23 02:52:52;;;;;;;9.80;5.97;;;;;;;;;;4941400;28;20016;-56
2023/04/23 02:55:17;;;;;;;7.75;5.70;;;;;;;;;;4943666;28;20027;-54
2023/04/23 02:57:44;;;;;;;9.48;5.72;;;;;;;;;;4938157;29;20078;-54
2023/04/23 03:00:11;;;;;;;9.63;5.60;;;;;;;;;;4945882;28;20130;-54
2023/04/23 03:02:39;;;;;;;9.07;6.40;;;;;;;;;;4953902;28;20292;-52
2023/04/23 03:05:06;;;;;;;8.02;5.70;;;;;;;;;;4953012;28;20024;-56
2023/04/23 03:07:31;;;;;;;12.82;7.18;;;;;;;;;;4939606;29;20042;-56
2023/04/23 03:09:57;;;;;;;8.98;6.82;;;;;;;;;;4953078;28;20416;-57
2023/04/23 03:12:22;;;;;;;9.05;6.22;;;;;;;;;;4937482;28;20085;-56
2023/04/23 03:14:48;;;;;;;13.02;6.85;;;;;;;;;;4939241;28;20062;-56
2023/04/23 03:17:13;;;;;;;9.40;6.50;;;;;;;;;;4937974;28;20031;-55
2023/04/23 03:19:39;;;;;;;9.38;7.25;;;;;;;;;;4936926;28;20432;-55
2023/04/23 03:22:04;;;;;;;11.68;7.50;;;;;;;;;;4954080;28;20039;-55
2023/04/23 03:24:33;;;;;;;9.15;6.93;;;;;;;;;;4955493;28;20118;-54
2023/04/23 03:26:59;;;;;;;9.32;6.13;;;;;;;;;;4940246;28;20039;-56
2023/04/23 03:29:25;;;;;;;11.13;8.18;;;;;;;;;;4942937;28;20039;-56
2023/04/23 03:31:50;;;;;;;11.75;6.88;;;;;;;;;;4944190;28;20043;-52
2023/04/23 03:34:16;;;;;;;9.90;7.18;;;;;;;;;;4944632;28;20019;-56
2023/04/23 03:36:43;;;;;;;10.32;7.28;;;;;;;;;;4936527;28;20090;-56
2023/04/23 03:39:09;;;;;;;9.77;6.88;;;;;;;;;;4940031;29;20059;-54
2023/04/23 03:41:56;;;;;;;9.70;6.80;;;;;;;;;;4942222;29;20043;-57
2023/04/23 03:44:25;;;;;;;10.18;6.70;;;;;;;;;;4942169;29;20031;-55
2023/04/23 03:46:51;;;;;;;9.05;6.88;;;;;;;;;;4954040;28;20485;-56
2023/04/23 03:49:16;;;;;;;13.15;6.68;;;;;;;;;;4940438;28;20502;-51
2023/04/23 03:51:42;;;;;;;13.25;7.45;;;;;;;;;;4938705;28;20487;-53
2023/04/23 03:54:08;;;;;;;8.63;6.20;;;;;;;;;;4938901;28;20487;-53
2023/04/23 03:56:37;;;;;;;10.05;6.60;;;;;;;;;;4938134;28;20343;-57
2023/04/23 03:59:08;;;;;;;9.82;6.97;;;;;;;;;;4939766;28;20047;-57
2023/04/23 04:01:35;;;;;;;12.85;7.38;;;;;;;;;;4941347;28;20023;-56
2023/04/23 04:04:00;;;;;;;12.10;7.50;;;;;;;;;;4938329;29;20035;-55
2023/04/23 04:06:26;;;;;;;11.00;7.03;;;;;;;;;;4927673;29;20114;-56
2023/04/23 04:08:52;;;;;;;13.90;8.00;;;;;;;;;;4942774;28;20035;-53
2023/04/23 04:11:17;;;;;;;11.43;7.85;;;;;;;;;;4936754;29;20105;-55
2023/04/23 04:13:43;;;;;;;13.95;7.80;;;;;;;;;;4950584;28;20082;-56
2023/04/23 04:16:08;;;;;;;16.30;8.13;;;;;;;;;;4940840;29;20138;-54
2023/04/23 04:18:33;;;;;;;12.05;7.35;;;;;;;;;;4940525;29;20031;-53
2023/04/23 04:20:59;;;;;;;11.55;7.47;;;;;;;;;;4942297;28;20042;-52
2023/04/23 04:23:25;;;;;;;9.90;7.05;;;;;;;;;;4941532;28;20024;-55
2023/04/23 04:25:53;;;;;;;11.00;7.78;;;;;;;;;;4944850;29;20041;-51
2023/04/23 04:28:19;;;;;;;12.45;7.85;;;;;;;;;;4959375;28;20619;-57
2023/04/23 04:30:44;;;;;;;12.32;7.82;;;;;;;;;;4943202;28;20043;-51
2023/04/23 04:33:13;;;;;;;13.07;7.78;;;;;;;;;;4925492;29;20035;-56
2023/04/23 04:35:39;;;;;;;9.65;7.10;;;;;;;;;;4949118;28;20117;-54
2023/04/23 04:38:04;;;;;;;9.68;7.15;;;;;;;;;;4941764;28;20187;-55
2023/04/23 04:40:30;;;;;;;12.30;7.80;;;;;;;;;;4943854;28;20045;-54
2023/04/23 04:42:56;;;;;;;10.63;6.47;;;;;;;;;;4944176;28;20376;-54
2023/04/23 04:45:22;;;;;;;10.18;6.40;;;;;;;;;;4941862;28;20381;-56
2023/04/23 04:47:47;;;;;;;9.82;6.70;;;;;;;;;;4941882;29;20518;-53
2023/04/23 04:50:12;;;;;;;10.23;7.00;;;;;;;;;;4942862;28;20038;-54
2023/04/23 04:52:37;;;;;;;15.02;8.38;;;;;;;;;;4943339;29;20103;-55
2023/04/23 04:55:05;;;;;;;9.05;7.07;;;;;;;;;;4941812;29;20194;-59
2023/04/23 04:57:30;;;;;;;11.35;8.10;;;;;;;;;;4945239;28;20182;-52
2023/04/23 04:59:56;;;;;;;11.18;8.07;;;;;;;;;;4941615;28;20122;-56
2023/04/23 05:02:22;;;;;;;11.65;7.63;;;;;;;;;;4943537;28;20405;-53
2023/04/23 05:04:47;;;;;;;11.40;7.60;;;;;;;;;;4939692;28;20552;-57
2023/04/23 05:07:13;;;;;;;10.35;7.85;;;;;;;;;;4944886;28;20031;-57
2023/04/23 05:09:38;;;;;;;10.05;7.75;;;;;;;;;;4941884;28;20150;-57
2023/04/23 05:12:06;;;;;;;12.95;8.20;;;;;;;;;;4939931;28;20024;-58
2023/04/23 05:14:31;;;;;;;9.95;7.25;;;;;;;;;;4943334;29;20030;-54
2023/04/23 05:16:57;;;;;;;10.45;7.43;;;;;;;;;;4942152;29;20335;-55
2023/04/23 05:19:22;;;;;;;11.80;7.30;;;;;;;;;;4942632;28;20043;-51
2023/04/23 05:21:47;;;;;;;11.00;7.88;;;;;;;;;;4939182;28;20472;-55
2023/04/23 05:24:13;;;;;;;11.60;8.27;;;;;;;;;;4942062;29;20039;-57
2023/04/23 05:26:38;;;;;;;11.40;7.78;;;;;;;;;;4943850;29;20023;-52
2023/04/23 05:29:03;;;;;;;11.38;7.97;;;;;;;;;;4957741;28;20039;-57
2023/04/23 05:31:29;;;;;;;10.80;7.57;;;;;;;;;;4942977;28;20075;-55
2023/04/23 05:33:54;;;;;;;14.30;8.85;;;;;;;;;;4941932;29;20023;-57
2023/04/23 05:36:20;;;;;;;11.40;7.60;;;;;;;;;;4944302;29;20051;-59
2023/04/23 05:38:45;;;;;;;15.60;10.50;;;;;;;;;;4942299;29;20576;-56
2023/04/23 05:41:11;;;;;;;13.43;8.05;;;;;;;;;;4941393;28;20043;-55
2023/04/23 05:43:36;;;;;;;11.38;7.32;;;;;;;;;;4940986;29;20043;-57
2023/04/23 05:46:03;;;;;;;9.00;7.43;;;;;;;;;;4939611;28;20031;-54
2023/04/23 05:48:28;;;;;;;14.90;7.03;;;;;;;;;;4937710;29;20043;-57
2023/04/23 05:50:54;;;;;;;9.57;6.68;;;;;;;;;;4943395;28;20049;-57
2023/04/23 05:53:19;;;;;;;7.78;6.00;;;;;;;;;;4936526;28;20556;-54
2023/04/23 05:55:45;;;;;;;8.00;6.05;;;;;;;;;;4939785;28;20039;-56
2023/04/23 05:58:10;;;;;;;8.20;5.57;;;;;;;;;;4943760;29;20031;-53
2023/04/23 06:00:36;;;;;;;10.10;5.93;;;;;;;;;;4943698;28;20074;-56
2023/04/23 06:03:01;;;;;;;8.60;5.47;;;;;;;;;;4943146;29;20540;-56
2023/04/23 06:05:26;;;;;;;9.82;5.75;;;;;;;;;;4956452;28;20132;-55
2023/04/23 06:07:52;;;;;;;7.32;5.35;;;;;;;;;;4938969;28;20078;-56
2023/04/23 06:10:17;;;;;;;8.10;5.35;;;;;;;;;;4940954;29;20105;-57
2023/04/23 06:12:43;;;;;;;8.95;4.82;;;;;;;;;;4943209;29;20496;-56
2023/04/23 06:15:08;;;;;;;8.60;4.32;;;;;;;;;;4938955;29;22057;-54
2023/04/23 06:17:34;;;;;;;5.38;3.70;;;;;;;;;;4938876;29;20039;-53
2023/04/23 06:20:00;;;;;;;5.80;3.30;;;;;;;;;;4942714;28;20039;-57
2023/04/23 06:22:25;;;;;;;4.90;3.25;;;;;;;;;;4946658;28;20065;-57
2023/04/23 06:24:51;;;;;;;4.82;3.50;;;;;;;;;;4954964;28;20027;-57
2023/04/23 06:27:16;;;;;;;5.03;3.28;;;;;;;;;;4941102;29;20104;-57
2023/04/23 06:29:47;;;;;;;4.90;3.10;;;;;;;;;;4955756;28;20057;-54
2023/04/23 06:32:12;;;;;;;6.00;2.90;;;;;;;;;;4955090;28;20412;-56
2023/04/23 06:34:37;;;;;;;5.15;2.80;;;;;;;;;;4940582;28;20019;-54
2023/04/23 06:37:03;;;;;;;5.70;3.20;;;;;;;;;;4939135;28;20455;-51
2023/04/23 06:39:28;;;;;;;4.10;2.60;;;;;;;;;;4942035;29;20473;-56
2023/04/23 06:41:53;;;;;;;3.92;2.63;;;;;;;;;;4939916;29;20435;-57
2023/04/23 06:44:21;;;;;;;5.70;3.05;;;;;;;;;;4954073;28;20358;-56
2023/04/23 06:46:50;;;;;;;5.47;3.15;;;;;;;;;;4938742;29;20027;-56
2023/04/23 06:49:15;;;;;;;5.32;3.30;;;;;;;;;;4940282;28;20035;-57
2023/04/23 06:51:40;;;;;;;5.10;3.03;;;;;;;;;;4938432;28;20717;-55
2023/04/23 06:54:06;;;;;;;4.47;2.60;;;;;;;;;;4942035;28;20039;-52
2023/04/23 06:56:31;;;;;;;5.65;2.50;;;;;;;;;;4938714;29;20032;-54
2023/04/23 06:58:56;;;;;;;5.40;2.80;;;;;;;;;;4954430;28;20686;-56
2023/04/23 07:01:22;;;;;;;4.93;2.70;;;;;;;;;;4950652;28;20473;-52
2023/04/23 07:03:50;;;;;;;4.22;2.63;;;;;;;;;;4941446;28;20476;-59
2023/04/23 07:06:15;;;;;;;4.82;2.83;;;;;;;;;;4939927;28;20516;-57
2023/04/23 07:08:41;;;;;;;6.65;2.75;;;;;;;;;;4940481;28;20038;-55
2023/04/23 07:11:07;;;;;;;6.97;2.90;;;;;;;;;;4942897;29;20465;-56
2023/04/23 07:13:32;;;;;;;4.32;2.42;;;;;;;;;;4944049;29;20087;-56
2023/04/23 07:15:57;;;;;;;3.40;2.00;;;;;;;;;;4943669;28;20036;-57
2023/04/23 07:18:22;;;;;;;3.33;2.30;;;;;;;;;;4957620;28;20484;-53
2023/04/23 07:20:48;;;;;;;4.03;2.22;;;;;;;;;;4942912;28;20071;-54
2023/04/23 07:23:13;;;;;;;4.32;2.08;;;;;;;;;;4956120;28;20043;-57
2023/04/23 07:25:38;;;;;;;4.68;2.42;;;;;;;;;;4956245;28;20040;-57
2023/04/23 07:28:04;;;;;;;4.40;2.20;;;;;;;;;;4940995;28;20070;-55
2023/04/23 07:30:29;;;;;;;3.15;2.03;;;;;;;;;;4939973;29;20035;-55
2023/04/23 07:32:54;;;;;;;3.45;2.25;;;;;;;;;;4937902;28;20377;-58
2023/04/23 07:35:20;;;;;;;3.20;1.98;;;;;;;;;;4939205;29;20127;-58
2023/04/23 07:37:45;;;;;;;4.65;2.10;;;;;;;;;;4940107;29;20042;-57
2023/04/23 07:40:10;;;;;;;2.83;2.05;;;;;;;;;;4941766;29;20134;-57
2023/04/23 07:42:36;;;;;;;1.88;1.60;;;;;;;;;;4952958;28;20058;-56
2023/04/23 07:45:01;;;;;;;2.40;1.83;;;;;;;;;;4939430;28;20381;-55
2023/04/23 07:47:27;;;;;;;2.58;1.63;;;;;;;;;;4939876;28;20027;-57
2023/04/23 07:49:52;;;;;;;3.05;2.00;;;;;;;;;;4938727;28;20094;-58
2023/04/23 07:52:17;;;;;;;2.53;1.52;;;;;;;;;;4937808;29;20392;-56
2023/04/23 07:54:43;;;;;;;2.50;1.63;;;;;;;;;;4940949;28;20027;-57
2023/04/23 07:57:10;;;;;;;3.85;1.98;;;;;;;;;;4941131;28;20885;-57
2023/04/23 07:59:37;;;;;;;3.03;2.00;;;;;;;;;;4943345;28;20043;-57
2023/04/23 08:02:03;;;;;;;4.45;2.10;;;;;;;;;;4944755;28;20471;-56
2023/04/23 08:04:28;;;;;;;5.38;2.40;;;;;;;;;;4944712;29;20043;-54
2023/04/23 08:06:57;;;;;;;6.13;2.85;;;;;;;;;;4945276;29;20504;-56
2023/04/23 08:09:23;;;;;;;3.15;1.95;;;;;;;;;;4941230;28;20042;-61
2023/04/23 08:11:48;;;;;;;3.65;2.20;;;;;;;;;;4942220;29;20031;-57
2023/04/23 08:14:13;;;;;;;3.97;2.17;;;;;;;;;;4941503;29;20016;-57
2023/04/23 08:16:39;;;;;;;3.05;2.15;;;;;;;;;;4941275;29;20037;-56
2023/04/23 08:19:04;;;;;;;3.92;1.77;;;;;;;;;;4940245;28;20553;-51
2023/04/23 08:21:31;;;;;;;3.95;2.00;;;;;;;;;;4942107;28;20114;-57
2023/04/23 08:23:56;;;;;;;3.17;1.90;;;;;;;;;;4942818;29;20090;-53
2023/04/23 08:26:22;;;;;;;3.10;1.90;;;;;;;;;;4942648;29;20043;-57
2023/04/23 08:28:50;;;;;;;2.67;1.80;;;;;;;;;;4941258;29;20855;-57
2023/04/23 08:31:16;;;;;;;3.00;1.90;;;;;;;;;;4956997;28;20035;-55
2023/04/23 08:33:41;;;;;;;4.65;2.00;;;;;;;;;;4943551;28;20417;-56
2023/04/23 08:36:07;;;;;;;2.45;1.80;;;;;;;;;;4943031;28;20439;-54
2023/04/23 08:38:32;;;;;;;2.65;1.70;;;;;;;;;;4942923;29;20492;-55
2023/04/23 08:40:58;;;;;;;2.50;1.67;;;;;;;;;;4939468;28;20039;-56
2023/04/23 08:43:30;;;;;;;2.83;1.90;;;;;;;;;;4956873;28;20058;-55
2023/04/23 08:45:56;;;;;;;21.52;12.52;;;;;;;;;;4957628;28;20027;-57
2023/04/23 08:48:22;;;;;;;7.87;5.20;;;;;;;;;;4944841;29;20561;-54
2023/04/23 08:50:47;;;;;;;4.80;3.30;;;;;;;;;;4955142;28;20798;-55
2023/04/23 08:53:16;;;;;;;4.60;2.83;;;;;;;;;;4942633;28;20026;-54
2023/04/23 08:55:42;;;;;;;7.90;4.15;;;;;;;;;;4943989;28;20408;-57
2023/04/23 08:58:07;;;;;;;3.90;2.30;;;;;;;;;;4942537;28;20512;-55
2023/04/23 09:00:33;;;;;;;3.70;2.25;;;;;;;;;;4941083;28;20063;-53
2023/04/23 09:02:59;;;;;;;3.60;2.08;;;;;;;;;;4956851;28;20046;-55
2023/04/23 09:05:26;;;;;;;2.88;1.80;;;;;;;;;;4942047;29;20035;-57
2023/04/23 09:07:51;;;;;;;3.00;1.90;;;;;;;;;;4943517;29;20034;-56
2023/04/23 09:10:16;;;;;;;2.53;1.70;;;;;;;;;;4941036;28;20031;-55
2023/04/23 09:12:42;;;;;;;3.13;1.88;;;;;;;;;;4956570;28;20039;-55
2023/04/23 09:15:11;;;;;;;3.25;1.90;;;;;;;;;;4958282;28;20042;-58
2023/04/23 09:17:38;;;;;;;4.88;1.83;;;;;;;;;;4941829;28;20054;-57
2023/04/23 09:20:04;;;;;;;2.33;1.55;;;;;;;;;;4943859;28;20481;-54
2023/04/23 09:22:44;;;;;;;2.47;1.80;;;;;;;;;;4937307;29;20043;-55
2023/04/23 09:25:10;;;;;;;5.07;2.05;;;;;;;;;;4945136;29;20118;-56
2023/04/23 09:27:36;;;;;;;2.60;1.73;;;;;;;;;;4941939;29;20420;-57
2023/04/23 09:30:06;;;;;;;4.07;1.88;;;;;;;;;;4939710;28;20469;-52
2023/04/23 09:32:32;;;;;;;10.10;7.05;;;;;;;;;;4943626;29;20035;-56
2023/04/23 09:34:57;;;;;;;2.50;2.05;;;;;;;;;;4957199;28;20034;-54
2023/04/23 09:37:25;;;;;;;3.22;2.30;;;;;;;;;;4939133;28;20031;-56
2023/04/23 09:39:52;;;;;;;4.45;1.90;;;;;;;;;;4943372;28;20035;-54
2023/04/23 09:42:22;;;;;;;2.50;1.50;;;;;;;;;;4942193;29;20130;-55
2023/04/23 09:44:54;;;;;;;3.03;1.80;;;;;;;;;;4943015;29;20035;-55
2023/04/23 09:47:19;;;;;;;5.40;3.08;;;;;;;;;;4942358;29;20073;-57
2023/04/23 09:49:46;;;;;;;3.03;2.05;;;;;;;;;;4940633;29;20114;-56
2023/04/23 09:52:12;;;;;;;2.13;1.67;;;;;;;;;;4941432;28;20035;-58
2023/04/23 09:54:37;;;;;;;2.30;1.60;;;;;;;;;;4939226;28;20028;-57
2023/04/23 09:57:05;;;;;;;2.20;1.60;;;;;;;;;;4938899;29;20082;-57
2023/04/23 09:59:31;;;;;;;2.55;1.98;;;;;;;;;;4928095;28;20053;-58
2023/04/23 10:02:00;;;;;;;4.13;1.65;;;;;;;;;;4940448;28;20032;-57
2023/04/23 10:04:25;;;;;;;5.05;1.90;;;;;;;;;;4941968;29;20057;-58
2023/04/23 10:06:54;;;;;;;2.67;1.85;;;;;;;;;;4933744;28;20035;-55
2023/04/23 10:09:23;;;;;;;2.75;1.80;;;;;;;;;;4937160;28;20536;-56
2023/04/23 10:11:52;;;;;;;3.90;1.67;;;;;;;;;;4939471;28;20043;-58
2023/04/23 10:14:18;;;;;;;3.38;1.60;;;;;;;;;;4939036;29;20379;-56
2023/04/23 10:16:45;;;;;;;3.28;1.70;;;;;;;;;;4934377;28;20050;-55
2023/04/23 10:19:12;;;;;;;2.92;2.00;;;;;;;;;;4938400;28;20142;-57
2023/04/23 10:21:38;;;;;;;3.30;1.63;;;;;;;;;;5219523;23;20503;-62
2023/04/23 10:24:05;;;;;;;1.98;1.58;;;;;;;;;;4981085;28;20040;-62
2023/04/23 10:26:30;;;;;;;3.17;1.60;;;;;;;;;;4978069;28;20287;-60
2023/04/23 10:28:57;;;;;;;2.85;1.75;;;;;;;;;;4993920;28;20496;-61
2023/04/23 10:31:22;;;;;;;2.65;1.90;;;;;;;;;;4987235;28;20034;-59
2023/04/23 10:33:49;;;;;;;4.35;1.90;;;;;;;;;;4973380;28;20092;-54
2023/04/23 10:36:15;;;;;;;2.90;1.80;;;;;;;;;;4978675;28;20058;-55
2023/04/23 10:38:41;;;;;;;3.88;1.80;;;;;;;;;;4987535;28;20057;-55
2023/04/23 10:41:07;;;;;;;2.05;1.60;;;;;;;;;;4982143;28;20037;-57
2023/04/23 10:43:32;;;;;;;3.35;1.65;;;;;;;;;;4986156;28;20467;-60
2023/04/23 10:45:59;;;;;;;3.00;1.97;;;;;;;;;;4981792;28;20563;-56
2023/04/23 10:48:26;;;;;;;3.88;1.83;;;;;;;;;;4983911;28;20042;-57
2023/04/23 10:51:01;;;;;;;2.72;1.90;;;;;;;;;;4981469;28;20033;-57
2023/04/23 10:53:30;;;;;;;2.20;1.60;;;;;;;;;;4991145;28;20039;-56
2023/04/23 10:56:05;;;;;;;4.57;1.92;;;;;;;;;;4969151;28;20035;-57
2023/04/23 10:58:47;;;;;;;2.97;1.90;;;;;;;;;;4968319;28;20080;-58
2023/04/23 11:01:12;;;;;;;2.35;1.60;;;;;;;;;;4972383;28;20036;-51
2023/04/23 11:03:41;;;;;;;4.53;1.92;;;;;;;;;;4960275;28;20050;-55
2023/04/23 11:06:07;;;;;;;2.00;1.50;;;;;;;;;;4969525;28;20550;-55
2023/04/23 11:08:35;;;;;;;3.22;1.60;;;;;;;;;;4975257;28;20038;-55
2023/04/23 11:11:01;;;;;;;2.92;1.60;;;;;;;;;;4971573;28;20487;-56
2023/04/23 11:13:27;;;;;;;2.63;1.52;;;;;;;;;;4975868;28;20031;-56
2023/04/23 11:16:12;;;;;;;1.83;1.45;;;;;;;;;;4969722;28;20030;-59
2023/04/23 11:18:56;;;;;;;1.67;1.50;;;;;;;;;;4969986;28;20049;-57
2023/04/23 11:21:21;;;;;;;3.00;1.45;;;;;;;;;;4975950;28;20038;-58
2023/04/23 11:23:47;;;;;;;3.28;1.63;;;;;;;;;;4951094;28;20041;-57
2023/04/23 11:26:21;;;;;;;3.30;1.53;;;;;;;;;;4948975;28;20378;-56
2023/04/23 11:28:48;;;;;;;2.95;1.40;;;;;;;;;;4959397;28;20587;-55
2023/04/23 11:31:14;;;;;;;1.73;1.40;;;;;;;;;;4950183;28;20057;-55
2023/04/23 11:33:39;;;;;;;2.92;1.45;;;;;;;;;;4955234;28;20062;-58
2023/04/23 11:36:05;;;;;;;2.70;1.53;;;;;;;;;;4951433;28;20897;-58
2023/04/23 11:38:32;;;;;;;2.20;1.40;;;;;;;;;;4950024;28;20369;-57
2023/04/23 11:41:00;;;;;;;1.83;1.40;;;;;;;;;;4953668;28;20071;-58
2023/04/23 11:43:28;;;;;;;2.42;1.40;;;;;;;;;;4948564;28;20037;-59
2023/04/23 11:45:53;;;;;;;3.58;1.20;;;;;;;;;;4952990;28;20043;-55
2023/04/23 11:48:19;;;;;;;2.60;1.50;;;;;;;;;;4950320;28;20089;-54
2023/04/23 11:50:45;;;;;;;3.43;1.40;;;;;;;;;;4946221;28;20901;-57
2023/04/23 11:53:11;;;;;;;2.87;1.57;;;;;;;;;;4953075;28;20462;-56
2023/04/23 11:55:37;;;;;;;3.63;1.40;;;;;;;;;;4949056;28;20033;-57
2023/04/23 11:58:02;;;;;;;1.27;1.17;;;;;;;;;;4955435;28;20069;-57
2023/04/23 12:00:28;;;;;;;5.05;1.70;;;;;;;;;;4950515;28;20066;-58
2023/04/23 12:02:53;;;;;;;4.63;1.40;;;;;;;;;;4944721;28;20669;-55
2023/04/23 12:05:20;;;;;;;1.75;1.40;;;;;;;;;;4954229;28;20030;-57
2023/04/23 12:07:49;;;;;;;1.30;1.08;;;;;;;;;;4946941;28;20034;-55
2023/04/23 12:10:21;;;;;;;4.88;1.50;;;;;;;;;;4953058;28;20895;-59
2023/04/23 12:12:50;;;;;;;1.85;1.17;;;;;;;;;;4947496;28;20035;-56
2023/04/23 12:15:16;;;;;;;1.85;1.30;;;;;;;;;;4947226;28;20599;-57
2023/04/23 12:17:41;;;;;;;1.97;1.40;;;;;;;;;;4953425;28;20609;-56
2023/04/23 12:20:10;;;;;;;1.83;1.27;;;;;;;;;;4948312;28;20035;-56
2023/04/23 12:22:36;;;;;;;1.63;1.17;;;;;;;;;;4948644;28;20477;-59
2023/04/23 12:25:06;;;;;;;2.63;1.37;;;;;;;;;;4956432;28;20074;-58
2023/04/23 12:27:32;;;;;;;1.35;1.20;;;;;;;;;;4950330;28;20054;-55
2023/04/23 12:29:58;;;;;;;2.85;1.30;;;;;;;;;;4954806;28;20059;-58
2023/04/23 12:32:23;;;;;;;2.03;1.27;;;;;;;;;;4944943;28;20023;-57
2023/04/23 12:34:55;;;;;;;2.13;1.10;;;;;;;;;;4948895;28;20102;-57
2023/04/23 12:37:25;;;;;;;2.50;1.35;;;;;;;;;;4953038;28;20196;-58
2023/04/23 12:39:51;;;;;;;4.97;1.40;;;;;;;;;;4950298;28;20709;-56
2023/04/23 12:42:17;;;;;;;1.33;1.10;;;;;;;;;;4953046;28;20043;-58
2023/04/23 12:44:42;;;;;;;2.10;1.20;;;;;;;;;;4951628;28;20663;-55
2023/04/23 12:47:08;;;;;;;2.17;1.30;;;;;;;;;;4950740;28;20785;-55
2023/04/23 12:49:34;;;;;;;2.85;1.08;;;;;;;;;;4955563;28;20415;-57
2023/04/23 12:52:01;;;;;;;2.67;1.15;;;;;;;;;;4950737;28;20098;-58
2023/04/23 12:54:28;;;;;;;2.78;1.00;;;;;;;;;;4957523;28;20057;-56
2023/04/23 12:56:54;;;;;;;2.50;1.10;;;;;;;;;;4952668;28;20413;-56
2023/04/23 12:59:19;;;;;;;1.65;1.02;;;;;;;;;;4948971;28;20405;-57
2023/04/23 13:01:44;;;;;;;2.63;1.30;;;;;;;;;;4955353;28;20659;-60
2023/04/23 13:04:10;;;;;;;1.80;1.00;;;;;;;;;;4942741;28;20031;-61
2023/04/23 13:06:35;;;;;;;1.30;1.03;;;;;;;;;;4986016;28;20050;-59
2023/04/23 13:09:04;;;;;;;0.97;0.90;;;;;;;;;;4984506;28;20022;-60
2023/04/23 13:11:30;;;;;;;1.67;1.02;;;;;;;;;;4989735;28;20183;-54
2023/04/23 13:13:55;;;;;;;1.92;1.27;;;;;;;;;;4992496;28;20540;-59
2023/04/23 13:16:20;;;;;;;0.97;0.90;;;;;;;;;;4983713;28;20049;-58
2023/04/23 13:18:46;;;;;;;2.37;1.30;;;;;;;;;;4995289;28;20033;-58
2023/04/23 13:21:11;;;;;;;;;;;;;;;;;;4992625;28;20113;-58
2023/04/23 13:23:37;;;;;;;3.20;1.10;;;;;;;;;;4993585;28;19932;-61
2023/04/23 13:26:03;;;;;;;4.57;1.40;;;;;;;;;;4993947;28;20579;-59
2023/04/23 13:28:28;;;;;;;2.90;1.40;;;;;;;;;;4991365;28;20460;-57
2023/04/23 13:30:53;;;;;;;1.43;1.00;;;;;;;;;;4996875;28;20509;-54
2023/04/23 13:33:20;;;;;;;2.20;1.20;;;;;;;;;;4997315;28;20057;-55
2023/04/23 13:35:45;;;;;;;;;;;;;;;;;;4998152;28;20026;-55
2023/04/23 13:38:10;;;;;;;;;;;;;;;;;;4995754;28;19928;-57
2023/04/23 13:40:36;;;;;;;2.20;1.20;;;;;;;;;;4994427;28;20012;-55
2023/04/23 13:43:02;;;;;;;1.98;1.10;;;;;;;;;;4993238;28;20762;-57
2023/04/23 13:45:27;;;;;;;1.20;1.07;;;;;;;;;;4982929;28;20133;-54
2023/04/23 13:47:52;;;;;;;2.10;1.40;;;;;;;;;;4992865;28;20119;-58
2023/04/23 13:50:18;;;;;;;2.07;1.30;;;;;;;;;;4984290;28;20030;-57
2023/04/23 13:52:43;;;;;;;1.10;1.00;;;;;;;;;;4992046;28;20045;-57
2023/04/23 13:55:09;;;;;;;5.07;1.13;;;;;;;;;;4996229;28;20061;-60
2023/04/23 13:57:34;;;;;;;2.38;1.17;;;;;;;;;;4994717;28;20049;-56
2023/04/23 13:59:59;;;;;;;1.80;1.03;;;;;;;;;;4971345;28;20069;-57
2023/04/23 14:02:25;;;;;;;2.60;1.20;;;;;;;;;;4986017;28;20105;-58
2023/04/23 14:04:51;;;;;;;1.55;1.15;;;;;;;;;;4971584;28;20042;-56
2023/04/23 14:07:16;;;;;;;3.10;1.30;;;;;;;;;;4993874;28;20626;-57
2023/04/23 14:09:41;;;;;;;4.27;1.37;;;;;;;;;;4994411;28;20076;-58
2023/04/23 14:12:07;;;;;;;1.67;1.23;;;;;;;;;;4992968;28;20036;-57
2023/04/23 14:14:32;;;;;;;1.75;1.40;;;;;;;;;;4986889;28;20170;-57
2023/04/23 14:16:58;;;;;;;3.20;1.30;;;;;;;;;;4992599;28;20076;-58
2023/04/23 14:19:24;;;;;;;2.22;1.13;;;;;;;;;;4987580;28;20383;-59
2023/04/23 14:21:50;;;;;;;3.27;1.10;;;;;;;;;;4985342;28;20046;-59
2023/04/23 14:24:15;;;;;;;2.20;1.20;;;;;;;;;;4993691;28;20049;-57
2023/04/23 14:26:41;;;;;;;1.63;1.23;;;;;;;;;;4994056;28;20231;-53
2023/04/23 14:29:17;;;;;;;3.58;1.40;;;;;;;;;;4995534;28;20500;-56
2023/04/23 14:31:42;;;;;;;3.47;1.40;;;;;;;;;;4991848;28;20037;-56
2023/04/23 14:34:07;;;;;;;2.43;1.50;;;;;;;;;;4993743;28;20037;-58
2023/04/23 14:36:33;;;;;;;3.93;1.50;;;;;;;;;;4992560;28;20038;-57